Time;durP1;ratioP1;P1;durP2;ratioP2;P2;SDS_P1;SDS_P2;PMS_P1;PMS_P2;Temp;Humidity;BMP_temperature;BMP_pressure;BME280_temperature;BME280_humidity;BME280_pressure;Samples;Min_cycle;Max_cycle;Signal;HPM_P1;HPM_P2
2023/06/17 00:01:22;;;;;;;7.82;3.88;;;;;;;17.69;56.85;101567.53;5292430;28;20107;-69
2023/06/17 00:03:53;;;;;;;5.25;4.40;;;;;;;17.71;56.51;101570.81;5294284;28;20029;-69
2023/06/17 00:06:24;;;;;;;5.95;3.90;;;;;;;17.58;57.08;101566.94;5294752;28;20499;-68
2023/06/17 00:08:55;;;;;;;6.95;4.22;;;;;;;17.49;57.15;101560.78;5295558;28;20403;-68
2023/06/17 00:11:28;;;;;;;6.10;3.90;;;;;;;17.43;57.79;101564.91;5299743;28;20314;-68
2023/06/17 00:14:00;;;;;;;;;;;;;;;18.20;51.03;101554.28;5300737;28;20023;-69
2023/06/17 00:16:32;;;;;;;5.22;3.42;;;;;;;17.33;58.59;101561.53;5295509;28;19927;-68
2023/06/17 00:19:04;;;;;;;7.40;4.03;;;;;;;17.35;58.14;101558.72;5296578;28;20480;-69
2023/06/17 00:21:35;;;;;;;5.07;3.90;;;;;;;17.28;57.93;101561.19;5293502;28;20028;-68
2023/06/17 00:24:06;;;;;;;11.50;3.92;;;;;;;17.31;58.14;101557.38;5298329;28;20027;-68
2023/06/17 00:26:38;;;;;;;6.95;3.88;;;;;;;17.27;59.27;101549.75;5297766;28;20056;-68
2023/06/17 00:29:10;;;;;;;6.57;3.42;;;;;;;17.25;58.70;101540.28;5298308;28;20028;-68
2023/06/17 00:31:41;;;;;;;4.78;4.07;;;;;;;17.18;59.62;101544.56;5295753;28;20034;-68
2023/06/17 00:34:12;;;;;;;6.07;3.73;;;;;;;17.13;59.85;101537.09;5297920;28;20747;-68
2023/06/17 00:36:44;;;;;;;10.20;4.03;;;;;;;17.02;61.89;101545.28;5298883;28;20638;-68
2023/06/17 00:39:15;;;;;;;6.20;3.80;;;;;;;16.99;61.39;101537.66;5297096;28;20112;-68
2023/06/17 00:41:46;;;;;;;4.25;3.50;;;;;;;16.95;61.63;101550.34;5296631;28;20345;-68
2023/06/17 00:44:17;;;;;;;7.00;3.80;;;;;;;16.94;62.16;101542.59;5297779;28;20500;-68
2023/06/17 00:46:51;;;;;;;5.72;4.47;;;;;;;16.81;62.13;101550.06;5298026;28;20798;-68
2023/06/17 00:49:32;;;;;;;6.90;4.38;;;;;;;16.83;62.72;101554.25;5295493;28;20038;-68
2023/06/17 00:52:04;;;;;;;5.22;4.28;;;;;;;16.67;63.62;101554.91;5297493;28;20489;-68
2023/06/17 00:54:41;;;;;;;5.95;4.25;;;;;;;16.72;63.15;101549.16;5297916;28;20028;-68
2023/06/17 00:57:14;;;;;;;7.43;3.90;;;;;;;16.55;64.29;101548.19;5294393;28;20024;-68
2023/06/17 00:59:45;;;;;;;10.70;4.80;;;;;;;16.59;62.74;101546.88;5297739;28;20094;-68
2023/06/17 01:02:17;;;;;;;4.43;3.85;;;;;;;16.60;63.18;101542.44;5294921;28;20102;-68
2023/06/17 01:04:48;;;;;;;6.35;4.20;;;;;;;16.59;63.37;101536.31;5298852;28;20028;-69
2023/06/17 01:07:42;;;;;;;6.78;4.10;;;;;;;16.77;61.67;101553.03;5295935;28;20075;-68
2023/06/17 01:10:31;;;;;;;6.03;3.70;;;;;;;16.70;62.34;101545.81;5295534;28;20412;-68
2023/06/17 01:13:05;;;;;;;5.40;3.72;;;;;;;16.50;63.94;101550.44;5298162;28;20354;-68
2023/06/17 01:15:36;;;;;;;;;;;;;;;17.20;56.54;101538.13;5296541;28;20028;-66
2023/06/17 01:18:08;;;;;;;7.63;4.07;;;;;;;16.42;64.34;101540.63;5297096;28;20395;-67
2023/06/17 01:20:40;;;;;;;9.00;4.45;;;;;;;16.31;65.16;101540.84;5296352;28;20028;-66
2023/06/17 01:23:12;;;;;;;6.65;4.00;;;;;;;16.26;65.27;101536.03;5297683;28;20068;-66
2023/06/17 01:25:44;;;;;;;5.47;4.20;;;;;;;16.27;65.52;101535.03;5295145;28;20020;-66
2023/06/17 01:28:16;;;;;;;4.85;3.72;;;;;;;16.21;66.55;101543.59;5296595;28;20034;-67
2023/06/17 01:30:48;;;;;;;6.45;4.15;;;;;;;16.26;65.51;101536.03;5297238;28;20051;-66
2023/06/17 01:33:20;;;;;;;5.50;4.57;;;;;;;16.23;65.37;101540.78;5298118;28;20074;-66
2023/06/17 01:36:03;;;;;;;5.90;3.97;;;;;;;16.25;65.49;101534.38;5280179;28;20676;-66
2023/06/17 01:38:43;;;;;;;5.30;4.65;;;;;;;16.22;64.79;101529.38;5295750;28;20028;-66
2023/06/17 01:41:17;;;;;;;5.07;4.35;;;;;;;16.14;65.46;101537.22;5295516;28;20052;-66
2023/06/17 01:43:49;;;;;;;7.25;4.10;;;;;;;16.07;65.56;101530.88;5296811;28;20035;-66
2023/06/17 01:46:21;;;;;;;5.93;4.47;;;;;;;16.09;65.22;101536.00;5296021;28;20370;-66
2023/06/17 01:48:54;;;;;;;5.68;4.20;;;;;;;16.08;65.33;101537.81;5294015;28;20481;-66
2023/06/17 01:51:25;;;;;;;6.10;4.22;;;;;;;16.04;65.09;101537.28;5296141;28;20461;-66
2023/06/17 01:53:56;;;;;;;6.10;4.75;;;;;;;15.99;65.90;101536.91;5294829;28;20070;-66
2023/06/17 01:56:28;;;;;;;6.85;4.53;;;;;;;15.96;66.50;101536.38;5295242;28;20047;-66
2023/06/17 01:58:59;;;;;;;7.85;4.95;;;;;;;15.92;66.40;101537.66;5297144;28;20036;-68
2023/06/17 02:01:31;;;;;;;5.25;4.72;;;;;;;15.84;67.18;101540.19;5296698;28;20166;-69
2023/06/17 02:04:02;;;;;;;6.15;4.47;;;;;;;15.79;67.85;101535.34;5297245;28;20027;-69
2023/06/17 02:06:33;;;;;;;6.13;4.85;;;;;;;15.74;68.86;101530.50;5291737;28;20404;-69
2023/06/17 02:09:05;;;;;;;9.18;4.88;;;;;;;15.67;69.66;101524.13;5293084;28;20434;-66
2023/06/17 02:11:37;;;;;;;6.47;4.60;;;;;;;15.70;69.38;101530.94;5297023;28;20088;-66
2023/06/17 02:14:08;;;;;;;5.20;4.47;;;;;;;15.62;69.77;101525.53;5297406;28;20494;-66
2023/06/17 02:16:44;;;;;;;11.48;4.68;;;;;;;15.67;70.78;101534.69;5296701;28;20016;-66
2023/06/17 02:19:15;;;;;;;7.22;4.75;;;;;;;15.62;69.65;101525.53;5292799;28;20057;-66
2023/06/17 02:21:47;;;;;;;9.23;4.40;;;;;;;15.61;69.40;101527.34;5294661;28;20020;-66
2023/06/17 02:24:18;;;;;;;10.18;5.30;;;;;;;15.56;69.91;101526.94;5295675;28;20559;-66
2023/06/17 02:26:50;;;;;;;7.55;5.70;;;;;;;15.51;69.79;101521.28;5293939;28;20024;-66
2023/06/17 02:29:21;;;;;;;8.65;4.55;;;;;;;15.44;70.39;101518.38;5295849;28;20408;-66
2023/06/17 02:31:53;;;;;;;6.82;5.15;;;;;;;15.36;72.23;101515.63;5294398;28;20042;-66
2023/06/17 02:34:24;;;;;;;6.90;4.78;;;;;;;15.39;71.86;101511.88;5296313;28;20039;-66
2023/06/17 02:36:56;;;;;;;6.53;4.63;;;;;;;15.31;72.70;101515.25;5295634;28;20476;-66
2023/06/17 02:39:27;;;;;;;7.07;4.73;;;;;;;15.26;73.13;101515.66;5295780;28;20055;-66
2023/06/17 02:41:59;;;;;;;8.65;5.43;;;;;;;15.27;72.69;101505.94;5293593;28;20051;-66
2023/06/17 02:44:33;;;;;;;8.25;4.82;;;;;;;15.22;73.13;101498.44;5292703;28;20028;-66
2023/06/17 02:47:06;;;;;;;12.43;5.28;;;;;;;15.15;74.08;101501.78;5294068;28;20051;-66
2023/06/17 02:49:37;;;;;;;8.75;4.82;;;;;;;15.16;72.99;101504.31;5292896;28;20103;-66
2023/06/17 02:52:08;;;;;;;6.70;4.85;;;;;;;15.08;74.02;101506.84;5296351;28;20217;-65
2023/06/17 02:54:40;;;;;;;11.57;5.20;;;;;;;15.04;74.90;101503.66;5295333;28;20023;-66
2023/06/17 02:57:11;;;;;;;9.82;5.30;;;;;;;15.00;75.70;101504.06;5294203;28;20446;-66
2023/06/17 02:59:42;;;;;;;14.55;5.35;;;;;;;15.03;75.22;101499.31;5293721;28;20028;-65
2023/06/17 03:02:14;;;;;;;7.28;5.13;;;;;;;15.06;74.52;101506.13;5295255;28;20221;-65
2023/06/17 03:04:45;;;;;;;7.20;4.72;;;;;;;15.08;74.67;101496.28;5296388;28;20437;-66
2023/06/17 03:07:16;;;;;;;7.43;4.60;;;;;;;15.07;74.54;101498.06;5295022;28;20485;-66
2023/06/17 03:09:47;;;;;;;7.63;4.53;;;;;;;15.09;74.94;101498.78;5294717;28;20060;-65
2023/06/17 03:12:19;;;;;;;9.63;4.88;;;;;;;15.06;74.66;101499.03;5294230;28;20111;-65
2023/06/17 03:14:50;;;;;;;8.10;4.93;;;;;;;14.90;77.78;101498.81;5295728;28;20031;-66
2023/06/17 03:17:21;;;;;;;6.78;5.00;;;;;;;14.99;76.24;101486.56;5293259;28;21332;-66
2023/06/17 03:19:53;;;;;;;11.20;5.38;;;;;;;14.94;76.58;101489.66;5297302;28;20459;-65
2023/06/17 03:22:24;;;;;;;7.18;5.63;;;;;;;14.92;76.89;101493.38;5295498;28;20450;-65
2023/06/17 03:24:55;;;;;;;7.05;5.00;;;;;;;14.91;76.83;101494.38;5295735;28;20065;-66
2023/06/17 03:27:27;;;;;;;8.73;5.35;;;;;;;14.83;78.24;101495.91;5293401;28;20024;-65
2023/06/17 03:29:58;;;;;;;7.30;4.80;;;;;;;14.84;77.46;101489.66;5295484;28;20035;-65
2023/06/17 03:32:29;;;;;;;14.60;4.82;;;;;;;14.84;77.81;101489.66;5296571;28;20430;-65
2023/06/17 03:35:02;;;;;;;5.25;4.75;;;;;;;14.80;78.30;101493.56;5295568;28;20019;-65
2023/06/17 03:37:33;;;;;;;6.68;4.75;;;;;;;14.79;78.95;101491.91;5293082;28;20118;-66
2023/06/17 03:40:06;;;;;;;11.00;4.65;;;;;;;14.78;79.54;101494.69;5293901;28;20032;-65
2023/06/17 03:42:37;;;;;;;6.80;5.07;;;;;;;14.78;79.66;101489.41;5294613;28;20040;-65
2023/06/17 03:45:09;;;;;;;9.90;5.40;;;;;;;14.71;80.24;101486.50;5300499;28;20481;-66
2023/06/17 03:47:41;;;;;;;7.88;5.07;;;;;;;14.78;80.16;101490.25;5295770;28;20642;-66
2023/06/17 03:50:13;;;;;;;6.20;5.30;;;;;;;14.75;80.19;101482.59;5297275;28;20243;-65
2023/06/17 03:52:44;;;;;;;9.55;5.13;;;;;;;14.83;79.47;101488.00;5297590;28;20101;-65
2023/06/17 03:55:16;;;;;;;5.63;5.03;;;;;;;14.83;80.02;101481.91;5298416;28;20123;-65
2023/06/17 03:57:47;;;;;;;7.55;5.35;;;;;;;14.80;81.01;101484.81;5294004;28;20032;-65
2023/06/17 04:00:19;;;;;;;8.13;5.85;;;;;;;14.81;80.80;101479.41;5296271;28;20050;-65
2023/06/17 04:02:50;;;;;;;6.40;4.97;;;;;;;14.84;80.41;101484.38;5298699;28;20424;-66
2023/06/17 04:05:22;;;;;;;11.25;5.47;;;;;;;14.78;81.45;101482.31;5296011;28;20039;-65
2023/06/17 04:07:53;;;;;;;9.63;5.57;;;;;;;14.80;81.41;101483.00;5296598;28;20076;-66
2023/06/17 04:10:26;;;;;;;8.23;5.72;;;;;;;14.78;82.59;101482.31;5298088;28;20031;-65
2023/06/17 04:12:57;;;;;;;11.57;5.97;;;;;;;14.91;82.53;101483.81;5299428;28;20475;-66
2023/06/17 04:15:28;;;;;;;10.70;5.82;;;;;;;14.92;82.70;101481.03;5299464;28;20024;-66
2023/06/17 04:18:02;;;;;;;8.93;6.78;;;;;;;15.00;82.04;101475.03;5297435;28;20103;-66
2023/06/17 04:20:36;;;;;;;10.98;6.90;;;;;;;15.04;82.64;101484.34;5292358;28;20035;-66
2023/06/17 04:23:07;;;;;;;11.50;5.97;;;;;;;15.14;81.88;101492.22;5297967;28;20040;-66
2023/06/17 04:25:38;;;;;;;12.20;6.60;;;;;;;15.19;82.11;101493.47;5299709;28;20032;-69
2023/06/17 04:28:12;;;;;;;7.28;5.90;;;;;;;15.33;79.94;101482.41;5297579;28;20028;-67
2023/06/17 04:30:47;;;;;;;13.30;6.35;;;;;;;15.36;80.74;101491.88;5298083;28;20023;-69
2023/06/17 04:33:18;;;;;;;10.75;5.63;;;;;;;15.41;80.98;101492.25;5298787;28;20501;-68
2023/06/17 04:35:51;;;;;;;10.90;6.25;;;;;;;15.38;81.50;101486.44;5297762;28;20077;-68
2023/06/17 04:38:23;;;;;;;8.07;5.82;;;;;;;15.46;81.14;101489.19;5297017;28;20065;-68
2023/06/17 04:40:54;;;;;;;13.32;6.47;;;;;;;15.53;80.50;101493.75;5298746;28;20382;-66
2023/06/17 04:43:28;;;;;;;11.57;6.72;;;;;;;15.60;79.86;101493.13;5297572;28;20051;-66
2023/06/17 04:46:01;;;;;;;10.18;5.80;;;;;;;15.75;78.49;101489.88;5295967;28;20154;-66
2023/06/17 04:48:32;;;;;;;8.02;6.53;;;;;;;15.73;80.44;101491.03;5298465;28;20027;-66
2023/06/17 04:51:03;;;;;;;8.82;6.22;;;;;;;15.76;80.32;101498.66;5298383;28;20027;-66
2023/06/17 04:53:34;;;;;;;10.43;6.38;;;;;;;15.84;80.56;101498.75;5297647;28;20024;-66
2023/06/17 04:56:06;;;;;;;9.75;6.63;;;;;;;15.88;81.25;101494.00;5294293;28;20078;-66
2023/06/17 04:58:37;;;;;;;15.82;7.55;;;;;;;15.95;81.71;101497.72;5296008;28;20032;-66
2023/06/17 05:01:10;;;;;;;11.70;7.40;;;;;;;16.02;80.77;101501.41;5298636;28;20411;-66
2023/06/17 05:03:42;;;;;;;11.07;7.07;;;;;;;16.12;82.14;101504.81;5297248;28;20028;-66
2023/06/17 05:06:13;;;;;;;10.57;7.30;;;;;;;16.18;80.87;101498.94;5296497;28;20028;-66
2023/06/17 05:08:44;;;;;;;17.90;8.15;;;;;;;16.26;81.32;101499.00;5293619;28;20289;-66
2023/06/17 05:11:16;;;;;;;11.50;7.43;;;;;;;16.38;79.43;101504.06;5297926;28;20046;-67
2023/06/17 05:13:47;;;;;;;11.18;8.07;;;;;;;16.41;79.83;101509.06;5298108;28;20020;-66
2023/06/17 05:16:18;;;;;;;9.15;7.90;;;;;;;16.53;79.78;101508.66;5296736;28;20034;-66
2023/06/17 05:18:49;;;;;;;14.52;9.15;;;;;;;16.55;82.88;101508.50;5293075;28;20058;-66
2023/06/17 05:21:22;;;;;;;12.20;9.40;;;;;;;16.64;81.04;101515.53;5297376;28;20085;-66
2023/06/17 05:23:54;;;;;;;14.63;9.48;;;;;;;16.80;80.16;101519.31;5298233;28;20374;-67
2023/06/17 05:26:27;;;;;;;15.15;9.60;;;;;;;16.80;81.23;101517.50;5296683;28;20504;-68
2023/06/17 05:28:58;;;;;;;14.67;9.93;;;;;;;16.90;82.15;101512.13;5295464;28;20152;-68
2023/06/17 05:31:29;;;;;;;13.63;9.98;;;;;;;16.97;82.79;101508.69;5295997;28;20289;-68
2023/06/17 05:34:00;;;;;;;14.82;11.82;;;;;;;17.10;78.91;101508.25;5298538;28;20030;-68
2023/06/17 05:36:32;;;;;;;13.23;11.93;;;;;;;17.15;78.56;101505.97;5296509;28;20024;-69
2023/06/17 05:39:03;;;;;;;15.80;12.70;;;;;;;17.27;78.94;101507.38;5294585;28;20393;-68
2023/06/17 05:41:34;;;;;;;12.70;11.50;;;;;;;17.36;77.93;101502.13;5297800;28;20020;-68
2023/06/17 05:44:06;;;;;;;13.82;11.70;;;;;;;17.43;77.93;101501.31;5291502;28;20302;-68
2023/06/17 05:46:37;;;;;;;12.52;11.32;;;;;;;17.55;77.34;101495.75;5294552;28;20024;-68
2023/06/17 05:49:08;;;;;;;14.80;12.40;;;;;;;17.62;76.82;101504.72;5293873;28;20028;-68
2023/06/17 05:51:39;;;;;;;13.10;11.27;;;;;;;17.67;78.00;101508.53;5297618;28;20290;-68
2023/06/17 05:54:11;;;;;;;13.55;10.88;;;;;;;17.84;75.51;101506.81;5295612;28;20028;-68
2023/06/17 05:56:42;;;;;;;11.88;10.77;;;;;;;17.94;75.63;101501.34;5291692;28;20123;-68
2023/06/17 05:59:13;;;;;;;13.57;10.73;;;;;;;18.08;74.93;101513.97;5289945;28;20115;-68
2023/06/17 06:01:45;;;;;;;14.38;11.15;;;;;;;18.16;73.88;101506.03;5292728;28;20036;-67
2023/06/17 06:04:16;;;;;;;12.75;11.55;;;;;;;18.26;73.52;101505.03;5293675;28;20487;-68
2023/06/17 06:06:47;;;;;;;13.30;11.98;;;;;;;18.38;72.37;101504.56;5293597;28;20051;-69
2023/06/17 06:09:18;;;;;;;12.40;11.15;;;;;;;18.47;73.28;101502.75;5291072;28;20469;-68
2023/06/17 06:11:50;;;;;;;13.07;10.93;;;;;;;18.63;71.22;101501.91;5296232;28;20376;-68
2023/06/17 06:14:22;;;;;;;11.68;10.52;;;;;;;18.81;71.63;101507.06;5292346;28;20759;-68
2023/06/17 06:16:54;;;;;;;11.05;9.95;;;;;;;18.84;71.41;101506.75;5290887;28;20039;-68
2023/06/17 06:19:25;;;;;;;12.05;10.80;;;;;;;18.96;68.53;101500.91;5293034;28;20576;-68
2023/06/17 06:21:56;;;;;;;12.70;10.93;;;;;;;19.17;70.72;101504.84;5289893;28;20024;-68
2023/06/17 06:24:27;;;;;;;11.93;10.77;;;;;;;19.20;67.18;101497.34;5294843;28;20542;-68
2023/06/17 06:26:59;;;;;;;11.52;10.38;;;;;;;19.39;65.43;101500.59;5293553;28;20278;-68
2023/06/17 06:29:30;;;;;;;13.07;11.68;;;;;;;19.55;64.58;101497.91;5293023;28;20024;-69
2023/06/17 06:32:02;;;;;;;14.82;10.88;;;;;;;19.66;64.03;101500.22;5294163;28;20027;-68
2023/06/17 06:34:33;;;;;;;13.07;9.95;;;;;;;19.79;62.42;101498.81;5292996;28;20039;-68
2023/06/17 06:37:05;;;;;;;12.13;10.25;;;;;;;19.95;59.67;101500.53;5294391;28;20024;-68
2023/06/17 06:39:36;;;;;;;10.98;9.80;;;;;;;20.03;61.08;101501.31;5291891;28;20289;-68
2023/06/17 06:42:07;;;;;;;12.65;10.73;;;;;;;20.20;59.57;101495.91;5292936;28;20032;-68
2023/06/17 06:44:39;;;;;;;11.63;10.50;;;;;;;20.38;58.83;101501.72;5289778;28;20055;-69
2023/06/17 06:47:11;;;;;;;14.25;10.68;;;;;;;20.61;53.34;101505.25;5291539;28;20733;-69
2023/06/17 06:49:42;;;;;;;11.45;10.43;;;;;;;20.72;51.55;101500.47;5291365;28;20030;-68
2023/06/17 06:52:13;;;;;;;13.10;10.03;;;;;;;20.96;51.16;101497.59;5294043;28;20027;-70
2023/06/17 06:54:45;;;;;;;12.80;10.02;;;;;;;21.09;50.08;101502.25;5293376;28;20020;-69
2023/06/17 06:57:16;;;;;;;11.30;10.10;;;;;;;21.25;48.57;101501.25;5292545;28;20027;-68
2023/06/17 06:59:47;;;;;;;10.77;9.43;;;;;;;21.33;49.82;101502.03;5294237;28;20440;-69
2023/06/17 07:02:19;;;;;;;10.90;9.80;;;;;;;21.47;46.23;101496.84;5291653;28;20139;-69
2023/06/17 07:04:51;;;;;;;10.63;9.53;;;;;;;21.62;47.94;101501.16;5289159;28;20035;-69
2023/06/17 07:07:22;;;;;;;10.70;9.80;;;;;;;21.60;49.37;101494.38;5290984;28;20508;-69
2023/06/17 07:09:53;;;;;;;12.00;10.73;;;;;;;21.80;47.90;101499.94;5291286;28;20065;-69
2023/06/17 07:12:24;;;;;;;13.00;11.40;;;;;;;21.93;47.44;101508.06;5295078;28;20111;-69
2023/06/17 07:14:56;;;;;;;12.90;11.60;;;;;;;22.18;46.81;101502.41;5295531;28;20043;-69
2023/06/17 07:17:27;;;;;;;12.03;10.83;;;;;;;22.34;45.45;101502.16;5294300;28;20764;-69
2023/06/17 07:19:59;;;;;;;12.43;8.60;;;;;;;22.43;43.21;101501.00;5291783;28;20028;-69
2023/06/17 07:22:30;;;;;;;8.70;7.57;;;;;;;22.54;42.56;101505.84;5293093;28;20331;-69
2023/06/17 07:25:02;;;;;;;9.87;8.87;;;;;;;22.71;41.88;101500.19;5295227;28;20111;-69
2023/06/17 07:27:33;;;;;;;10.30;9.20;;;;;;;22.89;41.42;101495.19;5294283;28;20020;-69
2023/06/17 07:30:05;;;;;;;10.50;9.47;;;;;;;22.94;43.66;101503.47;5291920;28;20024;-69
2023/06/17 07:32:37;;;;;;;12.30;9.13;;;;;;;23.17;41.29;101505.03;5294894;28;20053;-69
2023/06/17 07:35:08;;;;;;;12.27;8.80;;;;;;;23.39;40.60;101509.28;5291724;28;21316;-69
2023/06/17 07:37:40;;;;;;;10.40;9.03;;;;;;;23.45;39.73;101496.94;5292314;28;20024;-69
2023/06/17 07:40:11;;;;;;;9.80;8.90;;;;;;;23.52;39.08;101506.69;5291124;28;20133;-69
2023/06/17 07:42:43;;;;;;;10.27;8.77;;;;;;;23.64;37.64;101495.38;5278018;28;20076;-69
2023/06/17 07:45:14;;;;;;;13.50;9.07;;;;;;;23.97;39.65;101503.53;5292455;28;20446;-69
2023/06/17 07:47:46;;;;;;;10.10;8.50;;;;;;;24.04;38.20;101509.72;5293330;28;20050;-69
2023/06/17 07:50:17;;;;;;;9.57;8.63;;;;;;;24.25;38.17;101504.22;5291770;28;20042;-69
2023/06/17 07:52:50;;;;;;;10.30;9.20;;;;;;;24.25;37.33;101500.72;5290316;28;20067;-69
2023/06/17 07:55:21;;;;;;;9.77;8.77;;;;;;;24.41;36.71;101494.16;5293067;28;20042;-69
2023/06/17 07:57:52;;;;;;;11.63;8.93;;;;;;;24.58;36.63;101489.19;5290997;28;20024;-69
2023/06/17 08:00:24;;;;;;;12.60;8.40;;;;;;;24.78;37.25;101497.25;5293323;28;20031;-69
2023/06/17 08:02:55;;;;;;;13.67;9.00;;;;;;;24.82;37.23;101479.72;5276887;28;20031;-69
2023/06/17 08:05:26;;;;;;;9.47;8.60;;;;;;;24.90;37.46;101488.34;5290022;28;20912;-67
2023/06/17 08:07:58;;;;;;;9.90;8.73;;;;;;;25.15;35.26;101488.50;5278581;28;20390;-67
2023/06/17 08:10:29;;;;;;;9.37;8.33;;;;;;;25.09;36.09;101489.34;5289530;28;20035;-67
2023/06/17 08:13:01;;;;;;;10.40;9.30;;;;;;;25.12;35.47;101485.44;5293210;28;20024;-67
2023/06/17 08:15:32;;;;;;;8.77;7.87;;;;;;;25.54;35.18;101485.91;5292218;28;20020;-67
2023/06/17 08:18:03;;;;;;;8.13;6.97;;;;;;;25.60;32.64;101483.16;5290754;28;20591;-67
2023/06/17 08:20:36;;;;;;;8.47;5.47;;;;;;;25.69;32.93;101486.44;5291482;28;20028;-67
2023/06/17 08:23:08;;;;;;;6.45;5.53;;;;;;;25.75;31.63;101484.75;5293388;28;20035;-67
2023/06/17 08:25:39;;;;;;;6.03;5.33;;;;;;;25.96;31.01;101487.97;5288859;28;20031;-67
2023/06/17 08:28:10;;;;;;;6.30;4.73;;;;;;;26.04;32.11;101483.38;5291462;28;20028;-67
2023/06/17 08:30:41;;;;;;;6.70;5.97;;;;;;;26.11;30.50;101478.78;5292426;28;20054;-67
2023/06/17 08:33:13;;;;;;;7.30;4.47;;;;;;;26.02;28.77;101477.38;5296451;28;20036;-67
2023/06/17 08:35:44;;;;;;;5.03;4.40;;;;;;;26.18;28.53;101477.69;5298769;28;20522;-67
2023/06/17 08:38:15;;;;;;;5.47;4.10;;;;;;;26.27;28.94;101475.56;5294151;28;20504;-67
2023/06/17 08:40:47;;;;;;;6.27;5.17;;;;;;;26.34;29.70;101473.63;5294358;28;20450;-68
2023/06/17 08:43:20;;;;;;;7.67;4.67;;;;;;;26.57;29.76;101474.91;5293322;28;20026;-67
2023/06/17 08:45:53;;;;;;;6.57;3.90;;;;;;;26.83;29.35;101476.53;5292859;28;20032;-67
2023/06/17 08:48:25;;;;;;;7.15;3.78;;;;;;;26.90;28.91;101488.06;5296750;28;20057;-68
2023/06/17 08:50:56;;;;;;;5.43;4.23;;;;;;;26.95;28.32;101479.31;5293811;28;20028;-68
2023/06/17 08:53:29;;;;;;;5.50;4.03;;;;;;;27.16;28.75;101479.72;5295629;28;20031;-68
2023/06/17 08:56:01;;;;;;;;;;;;;;;27.99;29.25;101480.06;5294036;28;20115;-68
2023/06/17 08:58:37;;;;;;;5.35;4.07;;;;;;;27.35;26.65;101483.22;5290790;28;20392;-68
2023/06/17 09:01:08;;;;;;;5.57;4.53;;;;;;;27.31;27.50;101481.19;5294637;28;20444;-68
2023/06/17 09:03:43;;;;;;;5.33;4.40;;;;;;;27.45;27.87;101466.50;5294858;28;20032;-68
2023/06/17 09:06:25;;;;;;;6.05;4.43;;;;;;;27.54;29.34;101477.78;5294381;28;20558;-68
2023/06/17 09:08:57;;;;;;;4.78;3.70;;;;;;;27.47;28.09;101479.75;5293420;28;20054;-68
2023/06/17 09:11:31;;;;;;;6.72;3.55;;;;;;;27.55;28.86;101476.75;5292953;28;20028;-68
2023/06/17 09:14:03;;;;;;;4.22;3.53;;;;;;;27.69;28.25;101475.50;5294537;28;20023;-68
2023/06/17 09:16:35;;;;;;;4.72;3.80;;;;;;;27.97;29.32;101474.94;5292323;28;20035;-68
2023/06/17 09:19:13;;;;;;;8.23;3.40;;;;;;;28.21;28.43;101483.88;5291838;28;20058;-68
2023/06/17 09:21:47;;;;;;;4.82;2.90;;;;;;;28.37;27.82;101477.00;5293978;28;20027;-68
2023/06/17 09:24:20;;;;;;;6.00;3.65;;;;;;;28.26;27.37;101473.25;5297554;28;20039;-68
2023/06/17 09:26:52;;;;;;;5.57;3.00;;;;;;;28.26;27.86;101475.09;5292219;28;20150;-68
2023/06/17 09:29:23;;;;;;;4.67;3.27;;;;;;;28.23;26.82;101468.31;5294038;28;21248;-68
2023/06/17 09:31:56;;;;;;;6.57;3.37;;;;;;;28.47;27.71;101481.84;5287608;28;21622;-68
2023/06/17 09:34:27;;;;;;;5.07;2.90;;;;;;;28.49;27.53;101474.31;5296217;28;20015;-68
2023/06/17 09:37:00;;;;;;;4.00;3.40;;;;;;;28.61;26.76;101475.97;5294508;28;20038;-68
2023/06/17 09:39:33;;;;;;;5.00;3.65;;;;;;;28.36;26.49;101483.44;5296946;28;20030;-67
2023/06/17 09:42:12;;;;;;;5.85;3.28;;;;;;;28.71;26.88;101478.06;5295372;28;20027;-68
2023/06/17 09:44:46;;;;;;;4.80;3.40;;;;;;;28.68;26.83;101477.72;5294323;28;20036;-68
2023/06/17 09:47:22;;;;;;;4.95;3.28;;;;;;;28.81;27.74;101472.09;5291829;28;20032;-68
2023/06/17 09:49:54;;;;;;;6.03;3.75;;;;;;;28.85;26.37;101470.56;5295182;28;20028;-68
2023/06/17 09:52:26;;;;;;;5.32;3.20;;;;;;;29.00;27.99;101464.72;5293861;28;20024;-67
2023/06/17 09:54:58;;;;;;;8.37;3.63;;;;;;;29.09;26.59;101465.97;5291571;28;20405;-68
2023/06/17 09:57:31;;;;;;;;;;;;;;;30.10;27.39;101468.97;5288854;28;20032;-68
2023/06/17 10:00:10;;;;;;;;;;;;;;;30.27;26.65;101463.59;5290791;28;19916;-68
2023/06/17 10:02:41;;;;;;;5.45;3.30;;;;;;;29.50;26.48;101464.09;5294167;28;19916;-66
2023/06/17 10:05:12;;;;;;;6.20;3.90;;;;;;;29.40;25.41;101467.41;5296040;28;20497;-67
2023/06/17 10:07:45;;;;;;;5.30;3.80;;;;;;;29.30;26.36;101465.34;5292911;28;20023;-68
2023/06/17 10:10:17;;;;;;;10.93;3.40;;;;;;;29.52;26.50;101451.16;5292588;28;20024;-68
2023/06/17 10:12:52;;;;;;;5.30;3.35;;;;;;;29.70;26.57;101447.47;5294414;28;20109;-68
2023/06/17 10:15:24;;;;;;;5.70;3.35;;;;;;;29.68;26.36;101450.41;5294142;28;20165;-67
2023/06/17 10:17:56;;;;;;;7.68;3.42;;;;;;;29.54;25.89;101449.03;5292931;28;20036;-67
2023/06/17 10:20:32;;;;;;;5.30;3.75;;;;;;;29.68;26.86;101453.13;5295110;28;20066;-68
2023/06/17 10:23:04;;;;;;;7.13;3.75;;;;;;;29.85;26.25;101453.13;5295117;28;20035;-67
2023/06/17 10:25:36;;;;;;;3.75;2.97;;;;;;;30.03;25.54;101441.28;5293701;28;20107;-67
2023/06/17 10:28:07;;;;;;;5.10;3.22;;;;;;;30.13;25.22;101446.84;5294754;28;20062;-67
2023/06/17 10:30:42;;;;;;;3.80;3.40;;;;;;;30.37;25.45;101446.69;5293858;28;20062;-68
2023/06/17 10:33:13;;;;;;;5.30;3.22;;;;;;;30.20;25.17;101438.63;5295641;28;20043;-68
2023/06/17 10:35:45;;;;;;;4.90;3.20;;;;;;;30.29;25.93;101448.75;5297118;28;20028;-68
2023/06/17 10:38:30;;;;;;;4.73;3.17;;;;;;;30.54;25.68;101442.09;5295818;28;20115;-67
2023/06/17 10:41:01;;;;;;;4.72;3.30;;;;;;;30.49;25.55;101440.13;5293967;28;20039;-67
2023/06/17 10:43:37;;;;;;;5.13;3.17;;;;;;;30.62;24.87;101438.97;5328845;23;20055;-67
2023/06/17 10:46:08;;;;;;;4.97;3.30;;;;;;;30.51;24.93;101438.00;5314398;27;20032;-68
2023/06/17 10:48:39;;;;;;;3.60;2.85;;;;;;;30.64;23.87;101442.22;5320242;27;20034;-68
2023/06/17 10:51:11;;;;;;;3.23;2.83;;;;;;;30.51;24.79;101437.19;5322563;27;20550;-67
2023/06/17 10:53:51;;;;;;;5.20;2.97;;;;;;;30.74;24.46;101428.88;5322004;27;20020;-68
2023/06/17 10:56:22;;;;;;;5.35;3.55;;;;;;;30.85;25.27;101434.44;5322430;27;20368;-68
2023/06/17 10:58:54;;;;;;;4.10;3.20;;;;;;;30.85;25.16;101440.66;5295880;27;20019;-67
2023/06/17 11:01:25;;;;;;;5.80;3.07;;;;;;;30.96;25.75;101431.59;5319147;27;20099;-68
2023/06/17 11:03:58;;;;;;;4.47;3.15;;;;;;;30.85;24.88;101431.72;5320324;27;20043;-66
2023/06/17 11:06:31;;;;;;;6.47;2.90;;;;;;;30.75;23.85;101430.50;5315184;27;20471;-67
2023/06/17 11:09:04;;;;;;;3.97;2.90;;;;;;;30.46;24.46;101419.00;5308775;27;20027;-68
2023/06/17 11:11:36;;;;;;;5.57;3.00;;;;;;;30.76;24.73;101415.09;5309833;27;20032;-68
2023/06/17 11:14:07;;;;;;;6.00;3.40;;;;;;;30.95;24.56;101408.31;5307298;27;20103;-68
2023/06/17 11:16:39;;;;;;;5.53;3.20;;;;;;;30.93;24.70;101406.91;5294752;27;20477;-67
2023/06/17 11:19:13;;;;;;;5.80;3.23;;;;;;;31.00;23.96;101421.91;5318336;27;20104;-67
2023/06/17 11:21:44;;;;;;;4.47;3.15;;;;;;;30.89;24.32;101403.91;5319227;27;20034;-68
2023/06/17 11:24:16;;;;;;;3.77;3.13;;;;;;;31.12;23.43;101410.94;5315496;28;20468;-68
2023/06/17 11:26:48;;;;;;;6.50;3.20;;;;;;;31.00;23.97;101402.13;5317639;28;20023;-68
2023/06/17 11:29:19;;;;;;;;;;;;;;;32.19;23.87;101398.38;5319717;28;20027;-67
2023/06/17 11:31:51;;;;;;;4.93;3.50;;;;;;;31.32;23.41;101402.25;5320417;28;19915;-67
2023/06/17 11:34:23;;;;;;;4.18;2.90;;;;;;;31.29;23.01;101401.91;5314079;28;20098;-67
2023/06/17 11:36:55;;;;;;;6.97;3.15;;;;;;;31.23;23.04;101399.16;5315883;28;20038;-67
2023/06/17 11:39:30;;;;;;;3.50;3.03;;;;;;;31.47;23.04;101390.75;5314322;28;20118;-68
2023/06/17 11:42:03;;;;;;;4.80;3.38;;;;;;;31.29;23.01;101386.47;5319377;28;20496;-68
2023/06/17 11:44:34;;;;;;;;;;;;;;;32.48;22.87;101379.06;5324866;28;20023;-68
2023/06/17 11:47:08;;;;;;;4.03;3.30;;;;;;;31.49;23.33;101377.78;5316649;28;19926;-68